sensor_id;sensor_type;location;lat;lon;timestamp;P1;durP1;ratioP1;P2;durP2;ratioP2
7829;SDS011;3960;51.86894000;5.39848000;2022-11-20T00:00:55;21.93;;;12.13;;
7829;SDS011;3960;51.86894000;5.39848000;2022-11-20T00:03:20;21.27;;;12.27;;
7829;SDS011;3960;51.86894000;5.39848000;2022-11-20T00:05:45;20.92;;;11.75;;
7829;SDS011;3960;51.86894000;5.39848000;2022-11-20T00:08:11;21.27;;;11.55;;
7829;SDS011;3960;51.86894000;5.39848000;2022-11-20T00:10:36;19.10;;;11.02;;
7829;SDS011;3960;51.86894000;5.39848000;2022-11-20T00:13:02;17.10;;;10.70;;
7829;SDS011;3960;51.86894000;5.39848000;2022-11-20T00:15:27;23.83;;;11.50;;
7829;SDS011;3960;51.86894000;5.39848000;2022-11-20T00:17:52;19.37;;;11.77;;
7829;SDS011;3960;51.86894000;5.39848000;2022-11-20T00:20:17;17.97;;;11.13;;
7829;SDS011;3960;51.86894000;5.39848000;2022-11-20T00:22:43;21.90;;;11.90;;
7829;SDS011;3960;51.86894000;5.39848000;2022-11-20T00:25:08;20.30;;;11.03;;
7829;SDS011;3960;51.86894000;5.39848000;2022-11-20T00:27:33;17.70;;;11.20;;
7829;SDS011;3960;51.86894000;5.39848000;2022-11-20T00:29:58;18.50;;;10.90;;
7829;SDS011;3960;51.86894000;5.39848000;2022-11-20T00:32:23;19.90;;;11.10;;
7829;SDS011;3960;51.86894000;5.39848000;2022-11-20T00:34:49;21.00;;;11.25;;
7829;SDS011;3960;51.86894000;5.39848000;2022-11-20T00:37:14;20.65;;;11.63;;
7829;SDS011;3960;51.86894000;5.39848000;2022-11-20T00:39:39;19.67;;;10.82;;
7829;SDS011;3960;51.86894000;5.39848000;2022-11-20T00:42:04;19.00;;;11.05;;
7829;SDS011;3960;51.86894000;5.39848000;2022-11-20T00:44:29;23.83;;;12.05;;
7829;SDS011;3960;51.86894000;5.39848000;2022-11-20T00:46:55;19.20;;;11.83;;
7829;SDS011;3960;51.86894000;5.39848000;2022-11-20T00:49:20;21.80;;;12.27;;
7829;SDS011;3960;51.86894000;5.39848000;2022-11-20T00:51:45;26.30;;;12.07;;
7829;SDS011;3960;51.86894000;5.39848000;2022-11-20T00:54:10;19.83;;;12.23;;
7829;SDS011;3960;51.86894000;5.39848000;2022-11-20T00:56:35;19.57;;;10.83;;
7829;SDS011;3960;51.86894000;5.39848000;2022-11-20T00:59:00;23.00;;;11.43;;
7829;SDS011;3960;51.86894000;5.39848000;2022-11-20T01:01:26;18.65;;;10.52;;
7829;SDS011;3960;51.86894000;5.39848000;2022-11-20T01:03:54;19.30;;;11.60;;
7829;SDS011;3960;51.86894000;5.39848000;2022-11-20T01:06:24;19.35;;;11.02;;
7829;SDS011;3960;51.86894000;5.39848000;2022-11-20T01:08:50;19.90;;;11.73;;
7829;SDS011;3960;51.86894000;5.39848000;2022-11-20T01:11:20;23.65;;;11.82;;
7829;SDS011;3960;51.86894000;5.39848000;2022-11-20T01:13:46;19.63;;;11.43;;
7829;SDS011;3960;51.86894000;5.39848000;2022-11-20T01:16:12;17.83;;;10.73;;
7829;SDS011;3960;51.86894000;5.39848000;2022-11-20T01:18:39;20.60;;;11.50;;
7829;SDS011;3960;51.86894000;5.39848000;2022-11-20T01:21:05;18.67;;;10.77;;
7829;SDS011;3960;51.86894000;5.39848000;2022-11-20T01:23:32;19.50;;;11.00;;
7829;SDS011;3960;51.86894000;5.39848000;2022-11-20T01:25:59;18.55;;;10.80;;
7829;SDS011;3960;51.86894000;5.39848000;2022-11-20T01:28:24;17.58;;;10.52;;
7829;SDS011;3960;51.86894000;5.39848000;2022-11-20T01:30:49;19.10;;;11.07;;
7829;SDS011;3960;51.86894000;5.39848000;2022-11-20T01:33:14;20.87;;;11.17;;
7829;SDS011;3960;51.86894000;5.39848000;2022-11-20T01:35:39;22.83;;;11.30;;
7829;SDS011;3960;51.86894000;5.39848000;2022-11-20T01:38:04;19.05;;;10.82;;
7829;SDS011;3960;51.86894000;5.39848000;2022-11-20T01:40:29;18.20;;;10.70;;
7829;SDS011;3960;51.86894000;5.39848000;2022-11-20T01:42:59;23.03;;;11.40;;
7829;SDS011;3960;51.86894000;5.39848000;2022-11-20T01:45:58;17.50;;;10.73;;
7829;SDS011;3960;51.86894000;5.39848000;2022-11-20T01:48:24;17.77;;;10.88;;
7829;SDS011;3960;51.86894000;5.39848000;2022-11-20T01:50:50;18.83;;;10.50;;
7829;SDS011;3960;51.86894000;5.39848000;2022-11-20T01:53:16;21.55;;;11.50;;
7829;SDS011;3960;51.86894000;5.39848000;2022-11-20T01:55:44;18.42;;;11.20;;
7829;SDS011;3960;51.86894000;5.39848000;2022-11-20T01:58:10;19.75;;;11.30;;
7829;SDS011;3960;51.86894000;5.39848000;2022-11-20T02:00:36;24.05;;;11.77;;
7829;SDS011;3960;51.86894000;5.39848000;2022-11-20T02:03:03;19.70;;;11.60;;
7829;SDS011;3960;51.86894000;5.39848000;2022-11-20T02:08:14;19.92;;;11.52;;
7829;SDS011;3960;51.86894000;5.39848000;2022-11-20T02:10:40;20.00;;;11.43;;
7829;SDS011;3960;51.86894000;5.39848000;2022-11-20T02:13:05;18.83;;;11.03;;
7829;SDS011;3960;51.86894000;5.39848000;2022-11-20T02:15:49;20.90;;;12.45;;
7829;SDS011;3960;51.86894000;5.39848000;2022-11-20T02:18:16;21.85;;;10.75;;
7829;SDS011;3960;51.86894000;5.39848000;2022-11-20T02:20:42;18.48;;;11.27;;
7829;SDS011;3960;51.86894000;5.39848000;2022-11-20T02:23:11;20.83;;;11.90;;
7829;SDS011;3960;51.86894000;5.39848000;2022-11-20T02:25:37;17.60;;;10.68;;
7829;SDS011;3960;51.86894000;5.39848000;2022-11-20T02:28:02;16.55;;;10.68;;
7829;SDS011;3960;51.86894000;5.39848000;2022-11-20T02:30:27;17.88;;;10.45;;
7829;SDS011;3960;51.86894000;5.39848000;2022-11-20T02:32:53;21.57;;;11.57;;
7829;SDS011;3960;51.86894000;5.39848000;2022-11-20T02:37:43;20.33;;;11.55;;
7829;SDS011;3960;51.86894000;5.39848000;2022-11-20T02:40:09;22.85;;;11.68;;
7829;SDS011;3960;51.86894000;5.39848000;2022-11-20T02:42:35;24.77;;;11.60;;
7829;SDS011;3960;51.86894000;5.39848000;2022-11-20T02:45:00;22.42;;;11.35;;
7829;SDS011;3960;51.86894000;5.39848000;2022-11-20T02:47:25;19.88;;;11.02;;
7829;SDS011;3960;51.86894000;5.39848000;2022-11-20T02:49:51;21.35;;;11.40;;
7829;SDS011;3960;51.86894000;5.39848000;2022-11-20T02:52:16;22.38;;;11.65;;
7829;SDS011;3960;51.86894000;5.39848000;2022-11-20T02:54:41;17.50;;;11.05;;
7829;SDS011;3960;51.86894000;5.39848000;2022-11-20T02:57:06;19.57;;;11.50;;
7829;SDS011;3960;51.86894000;5.39848000;2022-11-20T02:59:32;20.65;;;10.68;;
7829;SDS011;3960;51.86894000;5.39848000;2022-11-20T03:01:57;18.38;;;10.90;;
7829;SDS011;3960;51.86894000;5.39848000;2022-11-20T03:04:22;18.93;;;10.90;;
7829;SDS011;3960;51.86894000;5.39848000;2022-11-20T03:06:47;19.88;;;11.05;;
7829;SDS011;3960;51.86894000;5.39848000;2022-11-20T03:09:12;19.57;;;10.83;;
7829;SDS011;3960;51.86894000;5.39848000;2022-11-20T03:11:38;19.08;;;10.88;;
7829;SDS011;3960;51.86894000;5.39848000;2022-11-20T03:14:03;20.67;;;10.30;;
7829;SDS011;3960;51.86894000;5.39848000;2022-11-20T03:16:30;18.25;;;10.63;;
7829;SDS011;3960;51.86894000;5.39848000;2022-11-20T03:18:55;23.05;;;10.90;;
7829;SDS011;3960;51.86894000;5.39848000;2022-11-20T03:21:20;19.97;;;11.33;;
7829;SDS011;3960;51.86894000;5.39848000;2022-11-20T03:23:45;18.02;;;10.77;;
7829;SDS011;3960;51.86894000;5.39848000;2022-11-20T03:28:36;16.65;;;10.55;;
7829;SDS011;3960;51.86894000;5.39848000;2022-11-20T03:31:11;20.42;;;11.18;;
7829;SDS011;3960;51.86894000;5.39848000;2022-11-20T03:33:37;17.85;;;10.27;;
7829;SDS011;3960;51.86894000;5.39848000;2022-11-20T03:36:04;23.65;;;11.68;;
7829;SDS011;3960;51.86894000;5.39848000;2022-11-20T03:38:30;19.85;;;10.90;;
7829;SDS011;3960;51.86894000;5.39848000;2022-11-20T03:40:59;20.55;;;11.00;;
7829;SDS011;3960;51.86894000;5.39848000;2022-11-20T03:43:25;16.50;;;9.88;;
7829;SDS011;3960;51.86894000;5.39848000;2022-11-20T03:45:50;18.45;;;10.57;;
7829;SDS011;3960;51.86894000;5.39848000;2022-11-20T03:48:15;16.80;;;10.10;;
7829;SDS011;3960;51.86894000;5.39848000;2022-11-20T03:50:40;21.13;;;11.27;;
7829;SDS011;3960;51.86894000;5.39848000;2022-11-20T03:53:06;19.60;;;10.80;;
7829;SDS011;3960;51.86894000;5.39848000;2022-11-20T03:55:31;18.33;;;10.55;;
7829;SDS011;3960;51.86894000;5.39848000;2022-11-20T03:57:56;17.90;;;10.93;;
7829;SDS011;3960;51.86894000;5.39848000;2022-11-20T04:00:21;20.37;;;11.30;;
7829;SDS011;3960;51.86894000;5.39848000;2022-11-20T04:02:46;23.45;;;10.57;;
7829;SDS011;3960;51.86894000;5.39848000;2022-11-20T04:05:11;22.15;;;10.15;;
7829;SDS011;3960;51.86894000;5.39848000;2022-11-20T04:07:37;21.48;;;10.60;;
7829;SDS011;3960;51.86894000;5.39848000;2022-11-20T04:10:02;16.38;;;10.02;;
7829;SDS011;3960;51.86894000;5.39848000;2022-11-20T04:12:27;18.92;;;10.63;;
7829;SDS011;3960;51.86894000;5.39848000;2022-11-20T04:14:52;17.33;;;10.63;;
7829;SDS011;3960;51.86894000;5.39848000;2022-11-20T04:17:17;19.97;;;11.00;;
7829;SDS011;3960;51.86894000;5.39848000;2022-11-20T04:19:42;18.63;;;10.87;;
7829;SDS011;3960;51.86894000;5.39848000;2022-11-20T04:22:08;19.67;;;10.60;;
7829;SDS011;3960;51.86894000;5.39848000;2022-11-20T04:24:33;20.10;;;11.40;;
7829;SDS011;3960;51.86894000;5.39848000;2022-11-20T04:26:58;16.93;;;10.60;;
7829;SDS011;3960;51.86894000;5.39848000;2022-11-20T04:29:23;18.52;;;10.52;;
7829;SDS011;3960;51.86894000;5.39848000;2022-11-20T04:31:49;19.30;;;10.77;;
7829;SDS011;3960;51.86894000;5.39848000;2022-11-20T04:34:14;18.63;;;10.63;;
7829;SDS011;3960;51.86894000;5.39848000;2022-11-20T04:36:39;21.93;;;11.43;;
7829;SDS011;3960;51.86894000;5.39848000;2022-11-20T04:39:05;22.63;;;11.13;;
7829;SDS011;3960;51.86894000;5.39848000;2022-11-20T04:41:31;21.25;;;10.93;;
7829;SDS011;3960;51.86894000;5.39848000;2022-11-20T04:43:58;18.15;;;9.98;;
7829;SDS011;3960;51.86894000;5.39848000;2022-11-20T04:46:26;19.20;;;10.77;;
7829;SDS011;3960;51.86894000;5.39848000;2022-11-20T04:48:52;20.40;;;10.65;;
7829;SDS011;3960;51.86894000;5.39848000;2022-11-20T04:51:17;18.90;;;11.38;;
7829;SDS011;3960;51.86894000;5.39848000;2022-11-20T04:53:42;18.48;;;10.82;;
7829;SDS011;3960;51.86894000;5.39848000;2022-11-20T04:56:08;18.70;;;10.80;;
7829;SDS011;3960;51.86894000;5.39848000;2022-11-20T04:58:35;19.48;;;10.48;;
7829;SDS011;3960;51.86894000;5.39848000;2022-11-20T05:01:03;18.13;;;10.18;;
7829;SDS011;3960;51.86894000;5.39848000;2022-11-20T05:03:29;18.35;;;10.73;;
7829;SDS011;3960;51.86894000;5.39848000;2022-11-20T05:05:55;20.25;;;10.68;;
7829;SDS011;3960;51.86894000;5.39848000;2022-11-20T05:08:20;19.20;;;11.07;;
7829;SDS011;3960;51.86894000;5.39848000;2022-11-20T05:10:45;18.57;;;10.73;;
7829;SDS011;3960;51.86894000;5.39848000;2022-11-20T05:13:10;17.10;;;10.25;;
7829;SDS011;3960;51.86894000;5.39848000;2022-11-20T05:15:35;22.83;;;10.37;;
7829;SDS011;3960;51.86894000;5.39848000;2022-11-20T05:18:01;17.77;;;11.05;;
7829;SDS011;3960;51.86894000;5.39848000;2022-11-20T05:20:26;19.35;;;11.73;;
7829;SDS011;3960;51.86894000;5.39848000;2022-11-20T05:22:51;19.33;;;11.13;;
7829;SDS011;3960;51.86894000;5.39848000;2022-11-20T05:25:16;23.33;;;12.10;;
7829;SDS011;3960;51.86894000;5.39848000;2022-11-20T05:27:41;18.57;;;11.00;;
7829;SDS011;3960;51.86894000;5.39848000;2022-11-20T05:30:07;16.35;;;10.25;;
7829;SDS011;3960;51.86894000;5.39848000;2022-11-20T05:32:33;24.48;;;11.80;;
7829;SDS011;3960;51.86894000;5.39848000;2022-11-20T05:34:58;20.17;;;11.43;;
7829;SDS011;3960;51.86894000;5.39848000;2022-11-20T05:37:23;22.27;;;11.95;;
7829;SDS011;3960;51.86894000;5.39848000;2022-11-20T05:39:49;21.38;;;12.27;;
7829;SDS011;3960;51.86894000;5.39848000;2022-11-20T05:42:14;21.08;;;12.57;;
7829;SDS011;3960;51.86894000;5.39848000;2022-11-20T05:45:01;24.08;;;11.93;;
7829;SDS011;3960;51.86894000;5.39848000;2022-11-20T05:47:27;18.55;;;10.75;;
7829;SDS011;3960;51.86894000;5.39848000;2022-11-20T05:49:53;21.52;;;11.45;;
7829;SDS011;3960;51.86894000;5.39848000;2022-11-20T05:52:18;20.85;;;11.80;;
7829;SDS011;3960;51.86894000;5.39848000;2022-11-20T05:54:43;18.30;;;10.63;;
7829;SDS011;3960;51.86894000;5.39848000;2022-11-20T05:57:08;17.60;;;11.10;;
7829;SDS011;3960;51.86894000;5.39848000;2022-11-20T05:59:33;20.43;;;11.07;;
7829;SDS011;3960;51.86894000;5.39848000;2022-11-20T06:01:59;20.00;;;11.85;;
7829;SDS011;3960;51.86894000;5.39848000;2022-11-20T06:04:24;21.87;;;12.33;;
7829;SDS011;3960;51.86894000;5.39848000;2022-11-20T06:06:49;20.23;;;12.07;;
7829;SDS011;3960;51.86894000;5.39848000;2022-11-20T06:09:14;17.23;;;10.63;;
7829;SDS011;3960;51.86894000;5.39848000;2022-11-20T06:11:39;21.38;;;11.88;;
7829;SDS011;3960;51.86894000;5.39848000;2022-11-20T06:14:04;19.40;;;11.88;;
7829;SDS011;3960;51.86894000;5.39848000;2022-11-20T06:16:29;21.80;;;11.48;;
7829;SDS011;3960;51.86894000;5.39848000;2022-11-20T06:18:55;21.70;;;11.57;;
7829;SDS011;3960;51.86894000;5.39848000;2022-11-20T06:21:21;20.08;;;11.68;;
7829;SDS011;3960;51.86894000;5.39848000;2022-11-20T06:23:46;21.55;;;12.23;;
7829;SDS011;3960;51.86894000;5.39848000;2022-11-20T06:26:21;20.70;;;12.35;;
7829;SDS011;3960;51.86894000;5.39848000;2022-11-20T06:28:47;21.35;;;13.27;;
7829;SDS011;3960;51.86894000;5.39848000;2022-11-20T06:31:13;21.58;;;12.70;;
7829;SDS011;3960;51.86894000;5.39848000;2022-11-20T06:33:39;20.25;;;11.93;;
7829;SDS011;3960;51.86894000;5.39848000;2022-11-20T06:36:04;24.38;;;11.98;;
7829;SDS011;3960;51.86894000;5.39848000;2022-11-20T06:38:30;23.90;;;12.63;;
7829;SDS011;3960;51.86894000;5.39848000;2022-11-20T06:40:55;20.67;;;11.57;;
7829;SDS011;3960;51.86894000;5.39848000;2022-11-20T06:43:21;24.65;;;13.00;;
7829;SDS011;3960;51.86894000;5.39848000;2022-11-20T06:45:50;20.90;;;11.75;;
7829;SDS011;3960;51.86894000;5.39848000;2022-11-20T06:48:16;20.98;;;12.40;;
7829;SDS011;3960;51.86894000;5.39848000;2022-11-20T06:50:41;22.17;;;12.50;;
7829;SDS011;3960;51.86894000;5.39848000;2022-11-20T06:53:06;23.38;;;12.15;;
7829;SDS011;3960;51.86894000;5.39848000;2022-11-20T06:55:31;22.30;;;13.05;;
7829;SDS011;3960;51.86894000;5.39848000;2022-11-20T06:57:56;19.67;;;12.73;;
7829;SDS011;3960;51.86894000;5.39848000;2022-11-20T07:00:21;25.77;;;13.52;;
7829;SDS011;3960;51.86894000;5.39848000;2022-11-20T07:02:47;23.65;;;13.38;;
7829;SDS011;3960;51.86894000;5.39848000;2022-11-20T07:05:12;23.38;;;13.40;;
7829;SDS011;3960;51.86894000;5.39848000;2022-11-20T07:07:37;24.87;;;14.47;;
7829;SDS011;3960;51.86894000;5.39848000;2022-11-20T07:10:02;24.05;;;13.85;;
7829;SDS011;3960;51.86894000;5.39848000;2022-11-20T07:12:27;25.27;;;14.05;;
7829;SDS011;3960;51.86894000;5.39848000;2022-11-20T07:14:53;24.93;;;14.43;;
7829;SDS011;3960;51.86894000;5.39848000;2022-11-20T07:17:37;22.88;;;13.68;;
7829;SDS011;3960;51.86894000;5.39848000;2022-11-20T07:20:02;27.10;;;14.48;;
7829;SDS011;3960;51.86894000;5.39848000;2022-11-20T07:22:28;28.13;;;13.77;;
7829;SDS011;3960;51.86894000;5.39848000;2022-11-20T07:24:53;24.33;;;14.38;;
7829;SDS011;3960;51.86894000;5.39848000;2022-11-20T07:27:18;23.60;;;13.80;;
7829;SDS011;3960;51.86894000;5.39848000;2022-11-20T07:29:43;23.67;;;13.97;;
7829;SDS011;3960;51.86894000;5.39848000;2022-11-20T07:32:09;22.70;;;13.27;;
7829;SDS011;3960;51.86894000;5.39848000;2022-11-20T07:34:34;24.75;;;15.23;;
7829;SDS011;3960;51.86894000;5.39848000;2022-11-20T07:36:59;22.42;;;14.45;;
7829;SDS011;3960;51.86894000;5.39848000;2022-11-20T07:39:24;25.03;;;15.10;;
7829;SDS011;3960;51.86894000;5.39848000;2022-11-20T07:41:49;24.33;;;14.57;;
7829;SDS011;3960;51.86894000;5.39848000;2022-11-20T07:44:14;23.63;;;14.20;;
7829;SDS011;3960;51.86894000;5.39848000;2022-11-20T07:46:41;23.20;;;14.40;;
7829;SDS011;3960;51.86894000;5.39848000;2022-11-20T07:49:06;24.20;;;13.63;;
7829;SDS011;3960;51.86894000;5.39848000;2022-11-20T07:51:31;23.75;;;14.07;;
7829;SDS011;3960;51.86894000;5.39848000;2022-11-20T07:53:56;24.30;;;14.27;;
7829;SDS011;3960;51.86894000;5.39848000;2022-11-20T07:56:21;19.70;;;12.48;;
7829;SDS011;3960;51.86894000;5.39848000;2022-11-20T07:58:46;24.83;;;14.53;;
7829;SDS011;3960;51.86894000;5.39848000;2022-11-20T08:01:12;24.77;;;14.95;;
7829;SDS011;3960;51.86894000;5.39848000;2022-11-20T08:03:37;30.73;;;15.40;;
7829;SDS011;3960;51.86894000;5.39848000;2022-11-20T08:06:02;27.08;;;14.38;;
7829;SDS011;3960;51.86894000;5.39848000;2022-11-20T08:08:28;27.98;;;16.42;;
7829;SDS011;3960;51.86894000;5.39848000;2022-11-20T08:10:53;33.20;;;17.58;;
7829;SDS011;3960;51.86894000;5.39848000;2022-11-20T08:13:38;28.58;;;17.02;;
7829;SDS011;3960;51.86894000;5.39848000;2022-11-20T08:16:22;24.30;;;14.48;;
7829;SDS011;3960;51.86894000;5.39848000;2022-11-20T08:18:47;21.33;;;12.70;;
7829;SDS011;3960;51.86894000;5.39848000;2022-11-20T08:21:12;22.30;;;13.17;;
7829;SDS011;3960;51.86894000;5.39848000;2022-11-20T08:23:38;18.63;;;11.83;;
7829;SDS011;3960;51.86894000;5.39848000;2022-11-20T08:26:03;20.63;;;12.63;;
7829;SDS011;3960;51.86894000;5.39848000;2022-11-20T08:28:28;20.90;;;13.10;;
7829;SDS011;3960;51.86894000;5.39848000;2022-11-20T08:30:57;22.85;;;12.95;;
7829;SDS011;3960;51.86894000;5.39848000;2022-11-20T08:33:22;20.92;;;13.30;;
7829;SDS011;3960;51.86894000;5.39848000;2022-11-20T08:35:47;29.58;;;14.48;;
7829;SDS011;3960;51.86894000;5.39848000;2022-11-20T08:38:13;20.67;;;13.37;;
7829;SDS011;3960;51.86894000;5.39848000;2022-11-20T08:40:38;22.77;;;13.57;;
7829;SDS011;3960;51.86894000;5.39848000;2022-11-20T08:43:03;29.63;;;15.00;;
7829;SDS011;3960;51.86894000;5.39848000;2022-11-20T08:45:29;24.50;;;14.95;;
7829;SDS011;3960;51.86894000;5.39848000;2022-11-20T08:47:59;26.35;;;14.90;;
7829;SDS011;3960;51.86894000;5.39848000;2022-11-20T08:50:24;29.13;;;16.33;;
7829;SDS011;3960;51.86894000;5.39848000;2022-11-20T08:52:49;22.33;;;14.40;;
7829;SDS011;3960;51.86894000;5.39848000;2022-11-20T08:55:15;27.00;;;16.60;;
7829;SDS011;3960;51.86894000;5.39848000;2022-11-20T08:57:40;26.13;;;16.08;;
7829;SDS011;3960;51.86894000;5.39848000;2022-11-20T09:00:06;26.40;;;16.23;;
7829;SDS011;3960;51.86894000;5.39848000;2022-11-20T09:02:31;25.45;;;13.55;;
7829;SDS011;3960;51.86894000;5.39848000;2022-11-20T09:04:57;23.27;;;13.20;;
7829;SDS011;3960;51.86894000;5.39848000;2022-11-20T09:07:22;24.80;;;14.60;;
7829;SDS011;3960;51.86894000;5.39848000;2022-11-20T09:09:47;27.08;;;14.70;;
7829;SDS011;3960;51.86894000;5.39848000;2022-11-20T09:12:12;23.92;;;14.70;;
7829;SDS011;3960;51.86894000;5.39848000;2022-11-20T09:14:38;26.08;;;15.90;;
7829;SDS011;3960;51.86894000;5.39848000;2022-11-20T09:17:03;26.17;;;15.13;;
7829;SDS011;3960;51.86894000;5.39848000;2022-11-20T09:19:28;24.23;;;14.43;;
7829;SDS011;3960;51.86894000;5.39848000;2022-11-20T09:21:54;24.83;;;14.47;;
7829;SDS011;3960;51.86894000;5.39848000;2022-11-20T09:24:19;26.42;;;14.90;;
7829;SDS011;3960;51.86894000;5.39848000;2022-11-20T09:26:45;29.98;;;17.45;;
7829;SDS011;3960;51.86894000;5.39848000;2022-11-20T09:29:10;29.73;;;15.32;;
7829;SDS011;3960;51.86894000;5.39848000;2022-11-20T09:31:35;22.93;;;14.47;;
7829;SDS011;3960;51.86894000;5.39848000;2022-11-20T09:34:01;24.25;;;15.15;;
7829;SDS011;3960;51.86894000;5.39848000;2022-11-20T09:36:26;28.60;;;15.97;;
7829;SDS011;3960;51.86894000;5.39848000;2022-11-20T09:38:51;25.25;;;15.30;;
7829;SDS011;3960;51.86894000;5.39848000;2022-11-20T09:43:58;26.70;;;15.75;;
7829;SDS011;3960;51.86894000;5.39848000;2022-11-20T09:46:42;25.40;;;15.68;;
7829;SDS011;3960;51.86894000;5.39848000;2022-11-20T09:49:32;23.42;;;14.82;;
7829;SDS011;3960;51.86894000;5.39848000;2022-11-20T09:52:07;25.60;;;15.33;;
7829;SDS011;3960;51.86894000;5.39848000;2022-11-20T09:54:35;26.98;;;16.30;;
7829;SDS011;3960;51.86894000;5.39848000;2022-11-20T09:57:05;27.20;;;16.98;;
7829;SDS011;3960;51.86894000;5.39848000;2022-11-20T09:59:34;25.88;;;16.30;;
7829;SDS011;3960;51.86894000;5.39848000;2022-11-20T10:02:01;26.58;;;16.92;;
7829;SDS011;3960;51.86894000;5.39848000;2022-11-20T10:04:28;25.90;;;16.65;;
7829;SDS011;3960;51.86894000;5.39848000;2022-11-20T10:09:30;31.50;;;17.67;;
7829;SDS011;3960;51.86894000;5.39848000;2022-11-20T10:12:05;28.23;;;16.92;;
7829;SDS011;3960;51.86894000;5.39848000;2022-11-20T10:14:40;27.25;;;15.60;;
7829;SDS011;3960;51.86894000;5.39848000;2022-11-20T10:23:02;26.73;;;16.58;;
7829;SDS011;3960;51.86894000;5.39848000;2022-11-20T10:25:38;29.65;;;17.58;;
7829;SDS011;3960;51.86894000;5.39848000;2022-11-20T10:28:10;28.00;;;18.17;;
7829;SDS011;3960;51.86894000;5.39848000;2022-11-20T10:30:41;30.45;;;18.88;;
7829;SDS011;3960;51.86894000;5.39848000;2022-11-20T10:33:15;36.17;;;18.73;;
7829;SDS011;3960;51.86894000;5.39848000;2022-11-20T10:35:43;28.85;;;18.10;;
7829;SDS011;3960;51.86894000;5.39848000;2022-11-20T10:38:16;29.25;;;17.83;;
7829;SDS011;3960;51.86894000;5.39848000;2022-11-20T10:40:44;30.02;;;18.60;;
7829;SDS011;3960;51.86894000;5.39848000;2022-11-20T10:45:43;29.63;;;18.27;;
7829;SDS011;3960;51.86894000;5.39848000;2022-11-20T10:50:37;29.20;;;18.42;;
7829;SDS011;3960;51.86894000;5.39848000;2022-11-20T10:55:35;29.17;;;17.67;;
7829;SDS011;3960;51.86894000;5.39848000;2022-11-20T10:58:09;34.10;;;17.90;;
7829;SDS011;3960;51.86894000;5.39848000;2022-11-20T11:00:35;29.88;;;18.75;;
7829;SDS011;3960;51.86894000;5.39848000;2022-11-20T11:03:01;34.17;;;16.97;;
7829;SDS011;3960;51.86894000;5.39848000;2022-11-20T11:05:39;37.45;;;17.85;;
7829;SDS011;3960;51.86894000;5.39848000;2022-11-20T11:08:10;31.65;;;18.92;;
7829;SDS011;3960;51.86894000;5.39848000;2022-11-20T11:13:20;30.15;;;18.33;;
7829;SDS011;3960;51.86894000;5.39848000;2022-11-20T11:15:45;34.78;;;18.25;;
7829;SDS011;3960;51.86894000;5.39848000;2022-11-20T11:18:10;34.73;;;19.83;;
7829;SDS011;3960;51.86894000;5.39848000;2022-11-20T11:20:36;36.03;;;21.65;;
7829;SDS011;3960;51.86894000;5.39848000;2022-11-20T11:23:01;35.28;;;18.63;;
7829;SDS011;3960;51.86894000;5.39848000;2022-11-20T11:27:52;37.38;;;20.40;;
7829;SDS011;3960;51.86894000;5.39848000;2022-11-20T11:30:18;33.88;;;18.52;;
7829;SDS011;3960;51.86894000;5.39848000;2022-11-20T11:32:44;40.28;;;21.33;;
7829;SDS011;3960;51.86894000;5.39848000;2022-11-20T11:35:31;39.38;;;20.17;;
7829;SDS011;3960;51.86894000;5.39848000;2022-11-20T11:38:02;42.85;;;18.90;;
7829;SDS011;3960;51.86894000;5.39848000;2022-11-20T11:40:28;42.15;;;21.08;;
7829;SDS011;3960;51.86894000;5.39848000;2022-11-20T11:42:57;36.00;;;19.58;;
7829;SDS011;3960;51.86894000;5.39848000;2022-11-20T11:45:23;39.13;;;21.52;;
7829;SDS011;3960;51.86894000;5.39848000;2022-11-20T11:47:49;42.67;;;23.33;;
7829;SDS011;3960;51.86894000;5.39848000;2022-11-20T11:55:25;32.95;;;18.52;;
7829;SDS011;3960;51.86894000;5.39848000;2022-11-20T12:00:29;39.13;;;20.48;;
7829;SDS011;3960;51.86894000;5.39848000;2022-11-20T12:03:13;30.77;;;16.58;;
7829;SDS011;3960;51.86894000;5.39848000;2022-11-20T12:05:40;38.67;;;22.42;;
7829;SDS011;3960;51.86894000;5.39848000;2022-11-20T12:08:18;37.47;;;19.02;;
7829;SDS011;3960;51.86894000;5.39848000;2022-11-20T12:10:55;50.72;;;23.63;;
7829;SDS011;3960;51.86894000;5.39848000;2022-11-20T12:15:58;40.53;;;22.35;;
7829;SDS011;3960;51.86894000;5.39848000;2022-11-20T12:18:24;34.97;;;18.05;;
7829;SDS011;3960;51.86894000;5.39848000;2022-11-20T12:26:07;38.47;;;21.30;;
7829;SDS011;3960;51.86894000;5.39848000;2022-11-20T12:28:44;42.78;;;23.02;;
7829;SDS011;3960;51.86894000;5.39848000;2022-11-20T12:33:44;46.92;;;25.63;;
7829;SDS011;3960;51.86894000;5.39848000;2022-11-20T12:38:45;46.20;;;24.00;;
7829;SDS011;3960;51.86894000;5.39848000;2022-11-20T12:43:51;48.35;;;24.90;;
7829;SDS011;3960;51.86894000;5.39848000;2022-11-20T12:46:49;39.80;;;22.20;;
7829;SDS011;3960;51.86894000;5.39848000;2022-11-20T12:57:29;38.90;;;21.55;;
7829;SDS011;3960;51.86894000;5.39848000;2022-11-20T13:00:07;52.67;;;28.40;;
7829;SDS011;3960;51.86894000;5.39848000;2022-11-20T13:05:18;46.90;;;18.42;;
7829;SDS011;3960;51.86894000;5.39848000;2022-11-20T13:07:45;47.60;;;25.42;;
7829;SDS011;3960;51.86894000;5.39848000;2022-11-20T13:10:13;46.97;;;24.55;;
7829;SDS011;3960;51.86894000;5.39848000;2022-11-20T13:12:44;40.78;;;20.05;;
7829;SDS011;3960;51.86894000;5.39848000;2022-11-20T13:17:51;44.60;;;22.38;;
7829;SDS011;3960;51.86894000;5.39848000;2022-11-20T13:20:19;38.63;;;21.17;;
7829;SDS011;3960;51.86894000;5.39848000;2022-11-20T13:22:45;44.80;;;24.25;;
7829;SDS011;3960;51.86894000;5.39848000;2022-11-20T13:25:24;49.95;;;24.90;;
7829;SDS011;3960;51.86894000;5.39848000;2022-11-20T13:27:49;44.75;;;23.10;;
7829;SDS011;3960;51.86894000;5.39848000;2022-11-20T13:30:15;53.00;;;26.15;;
7829;SDS011;3960;51.86894000;5.39848000;2022-11-20T13:32:49;44.63;;;23.88;;
7829;SDS011;3960;51.86894000;5.39848000;2022-11-20T13:35:23;47.72;;;25.02;;
7829;SDS011;3960;51.86894000;5.39848000;2022-11-20T13:37:48;55.20;;;28.05;;
7829;SDS011;3960;51.86894000;5.39848000;2022-11-20T13:40:23;52.08;;;27.80;;
7829;SDS011;3960;51.86894000;5.39848000;2022-11-20T13:45:30;65.05;;;34.00;;
7829;SDS011;3960;51.86894000;5.39848000;2022-11-20T13:47:56;52.60;;;28.20;;
7829;SDS011;3960;51.86894000;5.39848000;2022-11-20T13:50:24;47.53;;;26.60;;
7829;SDS011;3960;51.86894000;5.39848000;2022-11-20T14:00:25;48.28;;;28.85;;
7829;SDS011;3960;51.86894000;5.39848000;2022-11-20T14:05:34;63.15;;;32.75;;
7829;SDS011;3960;51.86894000;5.39848000;2022-11-20T14:08:00;63.00;;;32.88;;
7829;SDS011;3960;51.86894000;5.39848000;2022-11-20T14:10:28;67.32;;;34.10;;